Time;durP1;ratioP1;P1;durP2;ratioP2;P2;SDS_P1;SDS_P2;PMS_P1;PMS_P2;Temp;Humidity;BMP_temperature;BMP_pressure;BME280_temperature;BME280_humidity;BME280_pressure;Samples;Min_cycle;Max_cycle;Signal;HPM_P1;HPM_P2
2023/08/20 00:01:51;;;;;;;9.47;5.33;;;23.60;74.10;;;;;;5114580;28;20909;-76
2023/08/20 00:04:21;;;;;;;8.77;4.70;;;23.50;74.20;;;;;;5114548;28;20771;-76
2023/08/20 00:06:53;;;;;;;8.27;4.70;;;23.40;75.20;;;;;;5114341;28;20907;-76
2023/08/20 00:09:23;;;;;;;10.53;6.23;;;23.40;76.00;;;;;;5114040;28;20459;-77
2023/08/20 00:11:57;;;;;;;9.20;4.73;;;23.40;76.60;;;;;;5114307;28;20441;-77
2023/08/20 00:14:56;;;;;;;8.30;5.70;;;23.40;76.70;;;;;;5114379;28;20766;-76
2023/08/20 00:17:26;;;;;;;5.50;4.90;;;23.50;76.80;;;;;;5114373;28;20530;-77
2023/08/20 00:19:56;;;;;;;9.10;5.10;;;23.40;77.50;;;;;;5114173;28;20498;-76
2023/08/20 00:22:33;;;;;;;9.30;4.77;;;23.40;78.30;;;;;;5114034;28;20434;-77
2023/08/20 00:25:02;;;;;;;9.63;5.00;;;23.40;78.20;;;;;;5114019;28;20439;-77
2023/08/20 00:27:38;;;;;;;12.97;5.50;;;23.40;78.40;;;;;;5114052;28;20473;-76
2023/08/20 00:30:06;;;;;;;10.60;5.60;;;23.40;78.60;;;;;;5113919;28;20443;-76
2023/08/20 00:32:34;;;;;;;8.27;5.67;;;23.40;78.40;;;;;;5114325;28;20764;-77
2023/08/20 00:35:02;;;;;;;7.57;5.50;;;23.30;78.50;;;;;;5113510;28;20430;-76
2023/08/20 00:37:29;;;;;;;9.87;4.90;;;23.30;78.80;;;;;;5112945;28;20466;-76
2023/08/20 00:39:59;;;;;;;6.23;5.23;;;23.30;79.20;;;;;;5114349;28;20434;-76
2023/08/20 00:42:30;;;;;;;9.80;4.70;;;23.30;79.40;;;;;;5113988;28;20474;-76
2023/08/20 00:44:59;;;;;;;9.40;4.33;;;23.30;79.70;;;;;;5114263;28;20800;-76
2023/08/20 00:47:28;;;;;;;6.67;4.43;;;23.30;79.80;;;;;;5114147;28;20565;-76
2023/08/20 00:49:58;;;;;;;6.13;4.53;;;23.20;80.00;;;;;;5114107;28;20463;-76
2023/08/20 00:52:27;;;;;;;8.93;6.30;;;23.20;80.30;;;;;;5113006;28;20435;-76
2023/08/20 00:54:54;;;;;;;5.77;4.77;;;23.10;80.10;;;;;;5114046;28;20495;-76
2023/08/20 00:57:23;;;;;;;6.80;4.93;;;23.00;80.20;;;;;;5113929;28;20435;-76
2023/08/20 00:59:51;;;;;;;9.77;4.77;;;23.00;80.60;;;;;;5113140;28;20940;-76
2023/08/20 01:02:19;;;;;;;8.90;5.53;;;22.90;80.60;;;;;;5113958;28;20430;-76
2023/08/20 01:04:49;;;;;;;9.13;5.50;;;22.90;81.10;;;;;;5113338;28;20435;-76
2023/08/20 01:07:28;;;;;;;8.70;5.33;;;22.90;81.10;;;;;;5113016;28;20913;-76
2023/08/20 01:10:09;;;;;;;8.50;5.90;;;22.90;80.90;;;;;;5113673;28;20466;-76
2023/08/20 01:12:42;;;;;;;10.20;5.70;;;22.90;81.50;;;;;;5113906;28;20450;-76
2023/08/20 01:15:13;;;;;;;8.50;4.80;;;22.80;81.70;;;;;;5113836;28;20510;-76
2023/08/20 01:17:42;;;;;;;8.17;5.93;;;22.80;81.70;;;;;;5113280;28;20431;-76
2023/08/20 01:20:12;;;;;;;9.13;5.47;;;22.80;82.10;;;;;;5113744;28;20848;-76
2023/08/20 01:22:59;;;;;;;10.33;5.37;;;22.90;82.30;;;;;;5113715;28;20480;-78
2023/08/20 01:25:40;;;;;;;8.23;4.87;;;22.90;82.00;;;;;;5113800;28;20829;-76
2023/08/20 01:28:20;;;;;;;9.73;5.47;;;22.90;81.90;;;;;;5113723;28;20923;-76
2023/08/20 01:30:49;;;;;;;13.50;5.20;;;22.80;81.80;;;;;;5113280;28;20470;-77
2023/08/20 01:33:17;;;;;;;10.80;5.37;;;22.80;82.20;;;;;;5113073;28;20772;-76
2023/08/20 01:35:44;;;;;;;7.97;5.30;;;22.70;82.60;;;;;;5113219;28;20970;-77
2023/08/20 01:38:11;;;;;;;8.10;5.23;;;22.70;82.60;;;;;;5113254;28;20439;-76
2023/08/20 01:40:38;;;;;;;6.60;4.63;;;22.70;82.50;;;;;;5113507;28;20442;-76
2023/08/20 01:43:05;;;;;;;6.90;4.97;;;22.60;82.60;;;;;;5113695;28;20488;-76
2023/08/20 01:45:34;;;;;;;8.63;5.77;;;22.50;82.80;;;;;;5112653;28;20437;-76
2023/08/20 01:48:05;;;;;;;7.47;5.27;;;22.50;83.00;;;;;;5113355;28;20474;-76
2023/08/20 01:50:32;;;;;;;8.47;5.33;;;22.50;82.80;;;;;;5113339;28;20943;-76
2023/08/20 01:53:04;;;;;;;14.53;7.20;;;22.40;82.40;;;;;;5113308;28;20466;-77
2023/08/20 01:55:31;;;;;;;8.97;5.07;;;22.40;82.40;;;;;;5112591;28;20500;-76
2023/08/20 01:57:58;;;;;;;10.93;5.60;;;22.40;82.30;;;;;;5113462;28;20442;-76
2023/08/20 02:00:26;;;;;;;7.10;4.97;;;22.40;82.20;;;;;;5113397;28;20449;-76
2023/08/20 02:02:58;;;;;;;9.07;5.87;;;22.30;82.40;;;;;;5112820;28;20924;-76
2023/08/20 02:05:25;;;;;;;7.33;5.27;;;22.30;82.40;;;;;;5116202;28;20480;-76
2023/08/20 02:07:56;;;;;;;9.23;5.60;;;22.20;82.60;;;;;;5116822;28;21029;-76
2023/08/20 02:10:28;;;;;;;8.77;5.30;;;22.20;82.70;;;;;;5116787;28;20515;-76
2023/08/20 02:13:00;;;;;;;8.53;4.97;;;22.30;83.00;;;;;;5117280;28;20427;-76
2023/08/20 02:15:31;;;;;;;19.23;6.93;;;22.30;83.00;;;;;;5117119;28;20459;-76
2023/08/20 02:18:01;;;;;;;8.80;6.27;;;22.20;83.00;;;;;;5116895;28;20434;-76
2023/08/20 02:20:36;;;;;;;9.47;5.30;;;22.10;83.00;;;;;;5116965;28;20438;-76
2023/08/20 02:23:06;;;;;;;7.70;5.03;;;22.10;83.50;;;;;;5116740;28;20869;-76
2023/08/20 02:25:33;;;;;;;7.83;5.63;;;22.00;83.70;;;;;;5116941;28;20431;-76
2023/08/20 02:28:05;;;;;;;15.60;5.90;;;22.00;83.60;;;;;;5116471;28;20476;-76
2023/08/20 02:30:39;;;;;;;10.63;5.27;;;22.10;83.60;;;;;;5115895;28;20446;-76
2023/08/20 02:33:07;;;;;;;13.20;6.10;;;22.10;83.40;;;;;;5116887;28;20497;-75
2023/08/20 02:35:37;;;;;;;7.73;5.10;;;22.00;83.30;;;;;;5116679;28;20435;-76
2023/08/20 02:38:06;;;;;;;11.83;5.53;;;22.00;83.60;;;;;;5116420;28;20464;-76
2023/08/20 02:40:33;;;;;;;8.60;5.10;;;21.90;83.70;;;;;;5116084;28;20856;-75
2023/08/20 02:43:02;;;;;;;9.13;6.20;;;21.80;83.60;;;;;;5116551;28;20843;-75
2023/08/20 02:45:31;;;;;;;7.40;4.63;;;21.80;83.20;;;;;;5116367;28;20484;-76
2023/08/20 02:48:10;;;;;;;9.00;5.13;;;21.80;82.80;;;;;;5116421;28;20481;-76
2023/08/20 02:50:42;;;;;;;5.93;4.30;;;21.70;82.60;;;;;;5115811;28;20940;-76
2023/08/20 02:53:11;;;;;;;9.47;5.43;;;21.60;82.70;;;;;;5116455;28;20450;-76
2023/08/20 02:55:40;;;;;;;6.93;4.47;;;21.60;83.00;;;;;;5116329;28;20943;-76
2023/08/20 02:58:09;;;;;;;9.63;5.80;;;21.70;82.80;;;;;;5115949;28;20487;-76
2023/08/20 03:00:38;;;;;;;9.60;5.17;;;21.60;81.90;;;;;;5116086;28;20459;-76
2023/08/20 03:03:08;;;;;;;8.80;4.60;;;21.50;82.30;;;;;;5116149;28;20844;-76
2023/08/20 03:05:39;;;;;;;9.53;5.30;;;21.50;82.70;;;;;;5115667;28;20518;-76
2023/08/20 03:08:09;;;;;;;9.70;5.10;;;21.40;83.50;;;;;;5115699;28;20521;-76
2023/08/20 03:10:38;;;;;;;9.07;4.73;;;21.40;84.00;;;;;;5115533;28;20977;-75
2023/08/20 03:13:06;;;;;;;11.53;5.60;;;21.30;84.30;;;;;;5115987;28;20434;-76
2023/08/20 03:15:38;;;;;;;8.50;4.57;;;21.30;84.10;;;;;;5115434;28;20433;-76
2023/08/20 03:18:06;;;;;;;6.40;4.47;;;21.20;84.00;;;;;;5115936;28;20471;-77
2023/08/20 03:20:34;;;;;;;10.60;5.63;;;21.20;84.90;;;;;;5115112;28;20495;-76
2023/08/20 03:23:02;;;;;;;8.43;5.07;;;21.20;84.30;;;;;;5115860;28;20435;-76
2023/08/20 03:25:31;;;;;;;6.50;5.10;;;21.20;84.70;;;;;;5115422;28;20482;-77
2023/08/20 03:28:01;;;;;;;10.30;6.00;;;21.20;84.80;;;;;;5115603;28;20446;-76
2023/08/20 03:30:37;;;;;;;8.17;5.63;;;21.20;84.40;;;;;;5115651;28;20491;-76
2023/08/20 03:33:07;;;;;;;7.97;5.30;;;21.20;84.30;;;;;;5115356;28;20451;-76
2023/08/20 03:35:36;;;;;;;6.77;4.93;;;21.20;84.30;;;;;;5115567;28;20434;-76
2023/08/20 03:38:08;;;;;;;10.90;6.00;;;21.20;84.10;;;;;;5115502;28;20513;-76
2023/08/20 03:40:37;;;;;;;9.70;5.60;;;21.10;84.10;;;;;;5114767;28;20516;-76
2023/08/20 03:43:06;;;;;;;8.10;6.00;;;21.10;84.20;;;;;;5115049;28;20484;-76
2023/08/20 03:45:37;;;;;;;9.23;5.93;;;21.00;84.40;;;;;;5114958;28;20441;-76
2023/08/20 03:48:05;;;;;;;7.27;4.87;;;20.90;85.00;;;;;;5115269;28;20469;-76
2023/08/20 03:50:32;;;;;;;9.37;5.67;;;20.90;85.40;;;;;;5114903;28;20529;-76
2023/08/20 03:53:01;;;;;;;8.40;5.27;;;20.90;85.80;;;;;;5115185;28;20494;-75
2023/08/20 03:55:30;;;;;;;8.60;5.30;;;20.90;86.10;;;;;;5114747;27;20473;-75
2023/08/20 03:57:59;;;;;;;9.53;5.20;;;20.80;86.30;;;;;;5114272;28;20435;-76
2023/08/20 04:00:29;;;;;;;11.77;5.77;;;20.80;86.70;;;;;;5114668;28;20782;-75
2023/08/20 04:02:56;;;;;;;8.97;5.60;;;20.70;86.70;;;;;;5114626;28;20435;-76
2023/08/20 04:05:23;;;;;;;10.40;6.27;;;20.70;86.20;;;;;;5114265;28;20970;-76
2023/08/20 04:07:52;;;;;;;7.60;5.40;;;20.70;85.70;;;;;;5114980;28;20823;-76
2023/08/20 04:10:23;;;;;;;8.57;4.77;;;20.70;85.40;;;;;;5114521;28;20541;-76
2023/08/20 04:12:52;;;;;;;9.70;5.50;;;20.60;85.90;;;;;;5114004;28;20977;-76
2023/08/20 04:15:19;;;;;;;15.00;5.33;;;20.60;86.20;;;;;;5114386;28;20496;-76
2023/08/20 04:17:48;;;;;;;9.10;5.17;;;20.60;85.70;;;;;;5114408;28;20920;-76
2023/08/20 04:20:16;;;;;;;7.70;4.70;;;20.60;85.50;;;;;;5113820;28;20936;-76
2023/08/20 04:22:44;;;;;;;7.13;5.70;;;20.60;85.60;;;;;;5114596;28;20444;-76
2023/08/20 04:25:13;;;;;;;7.33;5.23;;;20.60;85.30;;;;;;5114442;28;20510;-75
2023/08/20 04:27:41;;;;;;;12.93;5.83;;;20.60;85.60;;;;;;5113559;28;20528;-76
2023/08/20 04:30:12;;;;;;;8.17;4.77;;;20.50;86.60;;;;;;5114091;28;20601;-75
2023/08/20 04:32:40;;;;;;;6.20;5.07;;;20.50;87.10;;;;;;5114234;28;20915;-75
2023/08/20 04:35:10;;;;;;;10.63;5.00;;;20.50;87.30;;;;;;5113749;28;20466;-76
2023/08/20 04:37:37;;;;;;;8.63;5.50;;;20.50;87.40;;;;;;5114175;28;20427;-76
2023/08/20 04:40:12;;;;;;;8.23;5.07;;;20.60;87.40;;;;;;5113803;28;20438;-75
2023/08/20 04:42:42;;;;;;;10.83;5.20;;;20.60;86.90;;;;;;5113716;28;20513;-76
2023/08/20 04:45:11;;;;;;;6.80;4.87;;;20.60;86.60;;;;;;5113650;28;20901;-75
2023/08/20 04:47:42;;;;;;;6.80;5.17;;;20.60;86.60;;;;;;5113898;28;20469;-76
2023/08/20 04:50:14;;;;;;;10.07;5.30;;;20.60;86.80;;;;;;5113782;28;20460;-76
2023/08/20 04:52:46;;;;;;;11.33;6.93;;;20.70;87.00;;;;;;5113472;28;20421;-75
2023/08/20 04:55:18;;;;;;;9.67;5.87;;;20.70;87.30;;;;;;5113680;28;20464;-75
2023/08/20 04:57:45;;;;;;;12.90;5.07;;;20.70;87.00;;;;;;5113482;28;20417;-75
2023/08/20 05:00:15;;;;;;;7.07;4.80;;;20.70;87.30;;;;;;5113674;28;20469;-76
2023/08/20 05:02:42;;;;;;;7.80;4.80;;;20.60;87.40;;;;;;5113984;28;20788;-75
2023/08/20 05:05:12;;;;;;;9.57;5.10;;;20.50;87.70;;;;;;5113269;28;20437;-76
2023/08/20 05:07:53;;;;;;;7.37;4.63;;;20.60;88.30;;;;;;5113278;28;20499;-77
2023/08/20 05:10:25;;;;;;;9.07;5.30;;;20.50;88.60;;;;;;5113186;28;20509;-75
2023/08/20 05:12:52;;;;;;;7.70;5.70;;;20.60;88.70;;;;;;5113320;28;20515;-76
2023/08/20 05:15:21;;;;;;;7.60;5.20;;;20.60;88.80;;;;;;5113466;28;20434;-76
2023/08/20 05:17:53;;;;;;;10.40;6.20;;;20.70;88.70;;;;;;5113504;28;20794;-75
2023/08/20 05:20:25;;;;;;;9.93;6.37;;;20.70;88.30;;;;;;5112873;28;20494;-75
2023/08/20 05:22:57;;;;;;;10.07;6.20;;;20.80;88.40;;;;;;5113632;28;20447;-76
2023/08/20 05:25:28;;;;;;;9.83;6.30;;;20.80;88.00;;;;;;5113149;28;20423;-75
2023/08/20 05:27:55;;;;;;;11.43;7.13;;;20.80;88.00;;;;;;5113386;28;20488;-76
2023/08/20 05:30:24;;;;;;;7.50;5.73;;;20.80;88.20;;;;;;5112932;28;20470;-75
2023/08/20 05:32:51;;;;;;;9.20;5.80;;;20.80;88.30;;;;;;5113039;28;20972;-76
2023/08/20 05:35:23;;;;;;;6.43;5.80;;;20.90;89.90;;;;;;5112822;28;20991;-75
2023/08/20 05:37:50;;;;;;;11.43;6.67;;;21.00;89.00;;;;;;5114083;28;20415;-75
2023/08/20 05:40:20;;;;;;;10.13;6.20;;;21.10;89.30;;;;;;5116964;28;20985;-75
2023/08/20 05:42:52;;;;;;;6.57;5.37;;;21.10;87.90;;;;;;5117118;28;20442;-76
2023/08/20 05:45:24;;;;;;;10.00;6.30;;;21.00;86.50;;;;;;5117448;28;20423;-75
2023/08/20 05:47:52;;;;;;;9.10;7.00;;;21.00;87.10;;;;;;5117354;28;20504;-76
2023/08/20 05:50:19;;;;;;;9.00;5.60;;;20.90;87.40;;;;;;5116872;28;20560;-75
2023/08/20 05:52:48;;;;;;;8.07;5.63;;;20.90;87.10;;;;;;5117251;28;20530;-75
2023/08/20 05:55:17;;;;;;;8.27;5.63;;;21.00;87.40;;;;;;5117217;28;20470;-76
2023/08/20 05:57:46;;;;;;;6.87;4.57;;;21.10;87.60;;;;;;5116924;28;20430;-76
2023/08/20 06:00:13;;;;;;;8.80;4.83;;;21.20;88.30;;;;;;5116352;28;20485;-75
2023/08/20 06:02:40;;;;;;;9.33;5.53;;;21.20;88.40;;;;;;5116323;28;20935;-76
2023/08/20 06:05:10;;;;;;;6.30;5.27;;;21.30;87.40;;;;;;5116979;28;20469;-75
2023/08/20 06:07:37;;;;;;;11.23;4.77;;;21.40;86.50;;;;;;5116375;28;20490;-75
2023/08/20 06:10:05;;;;;;;6.73;5.20;;;21.50;86.90;;;;;;5117065;28;20915;-75
2023/08/20 06:12:32;;;;;;;9.80;5.60;;;21.60;87.80;;;;;;5117000;28;20434;-77
2023/08/20 06:14:59;;;;;;;6.60;5.60;;;21.70;88.20;;;;;;5116766;28;20441;-76
2023/08/20 06:17:26;;;;;;;5.80;5.10;;;21.80;87.50;;;;;;5116590;28;20442;-75
2023/08/20 06:19:53;;;;;;;5.93;4.73;;;21.90;87.70;;;;;;5116524;28;20435;-76
2023/08/20 06:22:21;;;;;;;10.23;5.50;;;22.00;88.60;;;;;;5116272;28;20427;-75
2023/08/20 06:24:48;;;;;;;12.17;5.37;;;22.10;88.70;;;;;;5114548;28;20518;-76
2023/08/20 06:27:15;;;;;;;7.53;4.73;;;22.20;89.10;;;;;;5114205;27;20438;-76
2023/08/20 06:29:49;;;;;;;8.13;5.03;;;22.30;88.90;;;;;;5112530;27;20581;-76
2023/08/20 06:32:16;;;;;;;7.47;5.67;;;22.50;88.40;;;;;;5115209;28;20431;-76
2023/08/20 06:34:43;;;;;;;7.20;5.00;;;22.60;88.40;;;;;;5115515;28;20517;-76
2023/08/20 06:37:10;;;;;;;11.10;4.80;;;22.70;88.10;;;;;;5115437;28;20426;-76
2023/08/20 06:39:38;;;;;;;10.07;5.53;;;22.80;88.20;;;;;;5115424;28;20437;-76
2023/08/20 06:42:05;;;;;;;10.30;5.80;;;22.90;88.20;;;;;;5115115;28;20466;-76
2023/08/20 06:44:32;;;;;;;10.17;5.50;;;23.00;88.20;;;;;;5115203;28;20477;-75
2023/08/20 06:46:59;;;;;;;6.83;4.50;;;23.10;88.30;;;;;;5115773;28;20466;-75
2023/08/20 06:49:26;;;;;;;6.07;4.87;;;23.20;88.20;;;;;;5114518;28;20565;-76
2023/08/20 06:51:53;;;;;;;5.50;4.77;;;23.30;87.90;;;;;;5114988;28;20521;-76
2023/08/20 06:54:20;;;;;;;6.10;4.90;;;23.40;87.90;;;;;;5115147;28;20433;-75
2023/08/20 06:56:48;;;;;;;7.00;4.90;;;23.50;88.00;;;;;;5115398;28;20454;-76
2023/08/20 06:59:16;;;;;;;7.73;5.00;;;23.70;88.00;;;;;;5115324;28;20536;-76
2023/08/20 07:01:43;;;;;;;8.57;5.17;;;23.80;87.90;;;;;;5114895;28;20474;-76
2023/08/20 07:04:10;;;;;;;7.80;6.07;;;23.90;87.20;;;;;;5115136;28;20478;-76
2023/08/20 07:06:37;;;;;;;7.33;4.73;;;24.00;86.60;;;;;;5115224;28;20595;-76
2023/08/20 07:09:04;;;;;;;16.30;6.30;;;24.10;86.00;;;;;;5114654;28;20434;-76
2023/08/20 07:11:31;;;;;;;9.27;5.47;;;24.20;85.50;;;;;;5114976;28;20423;-76
2023/08/20 07:14:00;;;;;;;6.53;4.53;;;24.30;85.40;;;;;;5114751;28;20522;-76
2023/08/20 07:16:27;;;;;;;7.83;5.40;;;24.50;85.60;;;;;;5114737;28;20483;-76
2023/08/20 07:18:54;;;;;;;7.40;5.23;;;24.60;85.30;;;;;;5114632;28;20427;-76
2023/08/20 07:21:20;;;;;;;9.37;5.40;;;24.70;84.60;;;;;;5114747;28;20434;-76
2023/08/20 07:23:47;;;;;;;7.93;5.50;;;24.80;83.90;;;;;;5114836;28;20431;-76
2023/08/20 07:26:15;;;;;;;7.30;5.10;;;25.00;82.20;;;;;;5114647;28;20546;-75
2023/08/20 07:28:57;;;;;;;11.40;4.70;;;25.10;82.10;;;;;;5113136;28;20878;-76
2023/08/20 07:31:25;;;;;;;8.33;4.73;;;25.20;81.30;;;;;;5114377;28;20954;-76
2023/08/20 07:33:54;;;;;;;11.87;5.37;;;25.40;80.30;;;;;;5114367;28;20474;-75
2023/08/20 07:36:22;;;;;;;10.47;5.57;;;25.50;80.00;;;;;;5113959;28;20445;-76
2023/08/20 07:38:51;;;;;;;9.83;5.73;;;25.70;78.20;;;;;;5114359;28;20446;-75
2023/08/20 07:41:19;;;;;;;6.50;5.27;;;25.80;78.10;;;;;;5114304;28;20434;-76
2023/08/20 07:43:47;;;;;;;9.30;5.07;;;26.00;78.30;;;;;;5113767;28;20435;-76
2023/08/20 07:46:14;;;;;;;7.47;5.57;;;26.20;77.10;;;;;;5113349;28;20947;-76
2023/08/20 07:48:43;;;;;;;7.60;5.20;;;26.40;76.70;;;;;;5113492;28;20944;-76
2023/08/20 07:51:10;;;;;;;7.23;4.80;;;26.60;77.10;;;;;;5113259;28;20478;-76
2023/08/20 07:53:37;;;;;;;7.03;4.80;;;26.80;77.30;;;;;;5114069;28;20466;-76
2023/08/20 07:56:04;;;;;;;10.27;4.90;;;27.10;76.90;;;;;;5113891;28;20968;-76
2023/08/20 07:58:31;;;;;;;11.50;4.80;;;27.30;75.50;;;;;;5113863;28;20987;-76
2023/08/20 08:00:59;;;;;;;9.73;5.90;;;27.50;75.80;;;;;;5113284;28;20443;-76
2023/08/20 08:03:30;;;;;;;6.13;4.93;;;27.80;75.50;;;;;;5113109;28;20475;-76
2023/08/20 08:05:59;;;;;;;13.73;5.93;;;28.00;73.20;;;;;;5093371;28;20428;-75
2023/08/20 08:08:26;;;;;;;6.70;4.47;;;28.20;72.40;;;;;;5093101;28;20945;-74
2023/08/20 08:10:53;;;;;;;9.10;4.67;;;28.40;70.90;;;;;;5093618;28;20533;-75
2023/08/20 08:13:23;;;;;;;9.00;5.00;;;28.50;71.70;;;;;;5102303;28;20505;-74
2023/08/20 08:15:51;;;;;;;7.20;4.90;;;28.70;70.90;;;;;;5113908;28;20474;-74
2023/08/20 08:18:18;;;;;;;13.00;4.83;;;28.80;68.30;;;;;;5113176;28;20431;-75
2023/08/20 08:20:45;;;;;;;8.43;4.80;;;29.00;69.00;;;;;;5112554;28;20450;-74
2023/08/20 08:23:26;;;;;;;7.47;4.63;;;29.10;69.70;;;;;;5107435;28;20961;-75
2023/08/20 08:25:53;;;;;;;6.10;5.50;;;29.40;67.70;;;;;;5113724;28;20454;-75
2023/08/20 08:28:23;;;;;;;8.93;5.60;;;29.60;66.50;;;;;;5113553;28;20426;-75
2023/08/20 08:30:50;;;;;;;7.10;5.10;;;29.80;64.10;;;;;;5113512;28;20466;-75
2023/08/20 08:33:17;;;;;;;9.27;4.50;;;30.00;62.10;;;;;;5112029;28;20954;-74
2023/08/20 08:35:44;;;;;;;8.70;5.03;;;30.10;63.00;;;;;;5113249;28;20435;-74
2023/08/20 08:38:11;;;;;;;5.90;5.10;;;30.30;63.00;;;;;;5113661;28;20462;-74
2023/08/20 08:40:42;;;;;;;6.67;5.00;;;30.60;61.60;;;;;;5113329;27;20497;-74
2023/08/20 08:43:16;;;;;;;10.77;4.90;;;30.90;61.10;;;;;;5113050;28;20913;-74
2023/08/20 08:45:46;;;;;;;6.17;5.10;;;31.10;59.50;;;;;;5113139;28;20527;-74
2023/08/20 08:48:14;;;;;;;7.67;5.03;;;31.30;57.80;;;;;;5113102;28;20450;-74
2023/08/20 08:50:41;;;;;;;5.27;4.50;;;31.50;55.80;;;;;;5113289;28;20836;-74
2023/08/20 08:53:09;;;;;;;8.63;5.53;;;31.70;56.50;;;;;;5113427;28;20431;-74
2023/08/20 08:55:37;;;;;;;10.10;5.73;;;31.90;55.90;;;;;;5113448;28;20474;-74
2023/08/20 08:58:05;;;;;;;8.43;5.60;;;32.10;55.70;;;;;;5113036;28;20434;-74
2023/08/20 09:00:32;;;;;;;10.33;5.40;;;32.40;55.50;;;;;;5113103;28;20896;-74
2023/08/20 09:03:00;;;;;;;7.27;5.77;;;32.60;54.10;;;;;;5112886;28;20946;-74
2023/08/20 09:05:27;;;;;;;8.33;5.07;;;32.80;52.80;;;;;;5113171;28;20439;-75
2023/08/20 09:07:58;;;;;;;9.73;4.90;;;32.90;51.70;;;;;;5112912;28;20496;-75
2023/08/20 09:10:28;;;;;;;6.50;5.43;;;33.10;51.00;;;;;;5128069;27;21022;-74
2023/08/20 09:12:56;;;;;;;10.70;5.47;;;33.20;51.10;;;;;;5117191;28;20940;-74
2023/08/20 09:15:32;;;;;;;5.57;4.10;;;33.40;50.80;;;;;;5112716;28;20991;-74
2023/08/20 09:18:03;;;;;;;6.67;4.53;;;33.60;49.80;;;;;;5113004;28;20501;-75
2023/08/20 09:20:37;;;;;;;7.93;5.00;;;33.80;50.80;;;;;;5112862;28;20937;-74
2023/08/20 09:23:04;;;;;;;8.20;5.30;;;33.90;47.20;;;;;;5112486;28;20463;-75
2023/08/20 09:25:32;;;;;;;8.67;4.80;;;33.90;47.20;;;;;;5113033;28;20478;-75
2023/08/20 09:28:03;;;;;;;10.43;4.60;;;34.00;48.80;;;;;;5112593;28;20439;-75
2023/08/20 09:30:31;;;;;;;12.50;5.43;;;34.20;49.00;;;;;;5112841;28;20502;-75
2023/08/20 09:33:06;;;;;;;9.00;4.80;;;34.40;47.60;;;;;;5112953;28;20492;-75
2023/08/20 09:35:33;;;;;;;11.93;5.00;;;34.50;47.10;;;;;;5112888;28;20453;-75
2023/08/20 09:38:00;;;;;;;10.90;4.90;;;34.60;47.30;;;;;;5119049;28;20446;-75
2023/08/20 09:40:28;;;;;;;8.23;4.30;;;34.70;48.20;;;;;;5112689;28;20529;-74
2023/08/20 09:42:56;;;;;;;9.50;4.47;;;34.90;46.80;;;;;;5106564;28;20534;-74
2023/08/20 09:45:26;;;;;;;6.53;4.13;;;35.10;45.10;;;;;;5111769;28;20427;-74
2023/08/20 09:47:57;;;;;;;7.87;4.77;;;35.20;44.90;;;;;;5112281;28;20435;-74
2023/08/20 09:50:24;;;;;;;6.87;4.40;;;35.30;45.00;;;;;;5112287;28;20553;-75
2023/08/20 09:52:59;;;;;;;6.33;3.87;;;35.30;44.80;;;;;;5111961;28;20431;-74
2023/08/20 09:55:33;;;;;;;7.53;4.67;;;35.50;42.80;;;;;;5112528;28;20776;-74
2023/08/20 09:58:02;;;;;;;8.20;4.57;;;35.50;42.00;;;;;;5112282;28;20445;-74
2023/08/20 10:00:29;;;;;;;7.87;4.57;;;35.60;42.90;;;;;;5112290;28;20933;-74
2023/08/20 10:02:58;;;;;;;8.70;5.20;;;35.70;43.50;;;;;;5112698;28;20755;-74
2023/08/20 10:05:33;;;;;;;8.83;4.57;;;35.70;44.10;;;;;;5112332;28;20848;-74
2023/08/20 10:08:02;;;;;;;8.63;4.67;;;35.80;43.20;;;;;;5112708;28;20468;-74
2023/08/20 10:10:30;;;;;;;8.00;4.00;;;35.80;43.20;;;;;;5110913;28;20482;-74
2023/08/20 10:12:57;;;;;;;9.40;4.17;;;35.90;43.30;;;;;;5112254;28;20917;-74
2023/08/20 10:15:26;;;;;;;6.87;4.37;;;36.00;40.80;;;;;;5112079;28;20526;-74
2023/08/20 10:17:53;;;;;;;5.77;4.87;;;36.10;40.50;;;;;;5112533;28;20434;-74
2023/08/20 10:20:22;;;;;;;6.60;4.60;;;36.20;40.80;;;;;;5112006;28;20504;-74
2023/08/20 10:22:51;;;;;;;7.63;4.13;;;36.30;40.60;;;;;;5112196;28;20554;-74
2023/08/20 10:25:24;;;;;;;7.13;4.10;;;36.30;38.80;;;;;;5113367;28;20981;-74
2023/08/20 10:27:53;;;;;;;5.83;3.60;;;36.40;37.20;;;;;;5116095;28;20454;-75
2023/08/20 10:30:25;;;;;;;4.60;3.70;;;36.40;37.30;;;;;;5115266;28;20438;-75
2023/08/20 10:32:58;;;;;;;7.30;3.40;;;36.50;36.10;;;;;;5115849;28;20809;-74
2023/08/20 10:35:28;;;;;;;8.83;3.43;;;36.50;36.30;;;;;;5116130;28;20861;-74
2023/08/20 10:38:10;;;;;;;9.23;3.10;;;36.50;34.10;;;;;;5115513;28;20448;-74
2023/08/20 10:40:58;;;;;;;7.97;3.30;;;36.50;34.40;;;;;;5115979;28;20514;-73
2023/08/20 10:43:33;;;;;;;8.43;4.03;;;36.50;35.90;;;;;;5109464;28;20450;-73
2023/08/20 10:46:15;;;;;;;13.07;3.97;;;36.50;34.20;;;;;;5114840;28;20428;-74
2023/08/20 10:48:42;;;;;;;9.63;4.30;;;36.60;34.50;;;;;;5115794;28;20425;-76
2023/08/20 10:51:16;;;;;;;7.37;3.87;;;36.60;33.00;;;;;;5113591;27;20865;-73
2023/08/20 10:54:04;;;;;;;7.57;4.10;;;36.50;34.30;;;;;;5115367;28;20484;-74
2023/08/20 10:56:42;;;;;;;4.67;3.40;;;36.50;34.60;;;;;;5116107;28;20507;-76
2023/08/20 10:59:10;;;;;;;8.43;4.13;;;36.60;35.50;;;;;;5114870;28;20847;-74
2023/08/20 11:01:44;;;;;;;6.37;3.63;;;36.70;37.40;;;;;;5115246;28;20431;-73
2023/08/20 11:04:21;;;;;;;5.33;3.70;;;36.70;34.60;;;;;;5115136;28;20419;-74
2023/08/20 11:06:53;;;;;;;5.20;3.60;;;36.70;33.60;;;;;;5114660;28;20415;-73
2023/08/20 11:09:22;;;;;;;7.23;3.60;;;36.70;34.60;;;;;;5115488;28;20467;-73
2023/08/20 11:11:49;;;;;;;5.90;3.93;;;36.70;34.40;;;;;;5115140;28;20550;-73
2023/08/20 11:14:22;;;;;;;6.17;4.23;;;36.60;31.80;;;;;;5114366;28;20501;-73
2023/08/20 11:16:50;;;;;;;5.17;2.97;;;36.60;32.90;;;;;;5115265;28;20466;-73
2023/08/20 11:19:21;;;;;;;5.33;3.67;;;36.60;31.60;;;;;;5115257;28;20420;-73
2023/08/20 11:21:50;;;;;;;6.90;3.30;;;36.60;33.10;;;;;;5114930;28;20427;-73
2023/08/20 11:24:20;;;;;;;8.50;4.10;;;36.70;34.60;;;;;;5114982;28;20534;-73
2023/08/20 11:26:47;;;;;;;6.50;3.70;;;36.80;36.20;;;;;;5114279;27;20493;-73
2023/08/20 11:29:19;;;;;;;8.07;3.30;;;36.90;36.50;;;;;;5114238;28;21000;-73
2023/08/20 11:31:46;;;;;;;8.20;2.97;;;37.10;35.40;;;;;;5114572;28;20591;-73
2023/08/20 11:34:14;;;;;;;6.90;3.60;;;37.10;35.00;;;;;;5110607;27;20442;-73
2023/08/20 11:36:42;;;;;;;4.90;3.60;;;37.10;34.00;;;;;;5114348;28;20467;-73
2023/08/20 11:39:11;;;;;;;5.10;3.20;;;37.20;34.10;;;;;;5106913;28;20953;-73
2023/08/20 11:41:42;;;;;;;5.10;3.70;;;37.20;34.10;;;;;;5107525;28;20458;-73
2023/08/20 11:44:20;;;;;;;6.20;3.37;;;37.30;34.50;;;;;;5113893;28;20512;-74
2023/08/20 11:46:49;;;;;;;4.90;3.30;;;37.30;34.40;;;;;;5113972;28;20906;-73
2023/08/20 11:49:17;;;;;;;8.90;3.53;;;37.30;34.10;;;;;;5114225;28;20469;-73
2023/08/20 11:51:47;;;;;;;6.07;3.60;;;37.30;32.00;;;;;;5099282;28;20444;-74
2023/08/20 11:54:18;;;;;;;5.50;3.07;;;37.20;32.20;;;;;;5113098;28;20518;-74
2023/08/20 11:56:46;;;;;;;8.03;4.50;;;37.20;33.20;;;;;;5113877;28;20467;-75
2023/08/20 11:59:15;;;;;;;5.60;3.37;;;37.20;34.10;;;;;;5112816;28;20544;-77
2023/08/20 12:01:42;;;;;;;9.50;3.60;;;37.20;33.10;;;;;;5113726;28;20474;-77
2023/08/20 12:04:11;;;;;;;5.23;3.40;;;37.10;32.70;;;;;;5110257;28;20469;-76
2023/08/20 12:06:39;;;;;;;7.30;3.20;;;37.10;33.30;;;;;;5111435;28;20462;-76
2023/08/20 12:09:21;;;;;;;8.53;3.77;;;37.20;33.30;;;;;;5113300;28;20439;-76
2023/08/20 12:11:56;;;;;;;5.00;3.47;;;37.20;33.40;;;;;;5113646;28;20423;-76
2023/08/20 12:14:23;;;;;;;16.03;4.13;;;37.20;32.90;;;;;;5110159;28;20777;-76
2023/08/20 12:16:51;;;;;;;8.40;3.47;;;37.10;32.00;;;;;;5110078;28;20526;-76
2023/08/20 12:19:18;;;;;;;6.10;3.80;;;37.10;32.30;;;;;;5112028;28;20789;-76
2023/08/20 12:21:47;;;;;;;6.70;3.27;;;37.10;32.10;;;;;;5108254;28;20597;-76
2023/08/20 12:24:14;;;;;;;5.30;3.17;;;37.00;30.50;;;;;;5111519;28;20439;-76
2023/08/20 12:26:43;;;;;;;8.57;3.17;;;36.90;31.80;;;;;;5107913;28;20445;-76
2023/08/20 12:29:10;;;;;;;9.67;3.80;;;36.80;32.10;;;;;;5112098;28;20474;-76
2023/08/20 12:31:37;;;;;;;6.73;3.27;;;36.80;31.30;;;;;;5113649;28;20509;-76
2023/08/20 12:34:04;;;;;;;5.50;3.70;;;36.80;30.60;;;;;;5113522;28;20474;-76
2023/08/20 12:36:31;;;;;;;8.40;3.50;;;36.80;31.30;;;;;;5113329;28;20522;-76
2023/08/20 12:38:58;;;;;;;5.20;3.00;;;36.80;31.20;;;;;;5112326;28;20490;-76
2023/08/20 12:41:25;;;;;;;11.50;4.03;;;36.80;31.20;;;;;;5112247;28;20830;-76
2023/08/20 12:43:53;;;;;;;7.03;3.70;;;36.80;32.30;;;;;;5112390;28;20443;-76
2023/08/20 12:46:21;;;;;;;5.83;3.20;;;36.80;31.40;;;;;;5112906;28;20509;-76
2023/08/20 12:48:47;;;;;;;6.70;3.20;;;36.80;30.00;;;;;;5112749;28;20530;-76
2023/08/20 12:51:17;;;;;;;6.80;2.93;;;36.70;30.40;;;;;;5112630;28;20521;-76
2023/08/20 12:53:44;;;;;;;10.93;3.50;;;36.60;28.30;;;;;;5112583;28;20447;-76
2023/08/20 12:56:11;;;;;;;3.37;2.40;;;36.50;29.30;;;;;;5112233;28;20438;-76
2023/08/20 12:58:38;;;;;;;7.67;3.30;;;36.40;29.20;;;;;;5109986;28;20464;-76